createdAt,value
2023-05-06T00:01:52.575Z,8.57
2023-05-06T00:04:22.185Z,11.68
2023-05-06T00:06:50.482Z,12.35
2023-05-06T00:09:19.478Z,7.70
2023-05-06T00:11:47.891Z,14.30
2023-05-06T00:14:17.192Z,9.20
2023-05-06T00:16:46.250Z,11.50
2023-05-06T00:19:14.925Z,8.82
2023-05-06T00:21:43.519Z,9.98
2023-05-06T00:24:12.487Z,13.27
2023-05-06T00:26:41.108Z,11.02
2023-05-06T00:29:10.235Z,10.63
2023-05-06T00:31:38.601Z,11.52
2023-05-06T00:34:07.521Z,7.60
2023-05-06T00:36:36.618Z,9.85
2023-05-06T00:39:09.579Z,10.85
2023-05-06T00:41:37.895Z,11.85
2023-05-06T00:44:07.331Z,10.82
2023-05-06T00:46:35.884Z,7.78
2023-05-06T00:49:04.576Z,9.48
2023-05-06T00:51:32.945Z,10.52
2023-05-06T00:54:02.427Z,10.85
2023-05-06T00:56:31.245Z,8.00
2023-05-06T00:59:01.903Z,6.30
2023-05-06T01:01:33.570Z,8.73
2023-05-06T01:06:50.079Z,7.68
2023-05-06T01:09:38.253Z,8.75
2023-05-06T01:12:17.237Z,13.75
2023-05-06T01:14:56.223Z,8.02
2023-05-06T01:17:28.426Z,4.93
2023-05-06T01:20:01.685Z,6.53
2023-05-06T01:22:31.337Z,10.70
2023-05-06T01:25:00.149Z,8.02
2023-05-06T01:27:28.764Z,8.30
2023-05-06T01:29:59.653Z,7.43
2023-05-06T01:32:43.104Z,8.38
2023-05-06T01:35:39.069Z,7.45
2023-05-06T01:38:35.060Z,5.38
2023-05-06T01:41:04.398Z,4.07
2023-05-06T01:43:38.426Z,4.72
2023-05-06T01:46:09.543Z,5.05
2023-05-06T01:48:40.292Z,5.65
2023-05-06T01:51:09.539Z,7.00
2023-05-06T01:53:37.958Z,7.25
2023-05-06T01:56:07.526Z,9.68
2023-05-06T01:58:36.270Z,35.15
2023-05-06T02:01:04.827Z,5.35
2023-05-06T02:03:33.144Z,6.68
2023-05-06T02:06:02.167Z,5.60
2023-05-06T02:08:33.926Z,4.47
2023-05-06T02:11:03.183Z,11.02
2023-05-06T02:13:32.969Z,5.13
2023-05-06T02:16:02.454Z,6.53
2023-05-06T02:18:30.807Z,5.63
2023-05-06T02:20:59.547Z,7.03
2023-05-06T02:23:27.748Z,8.10
2023-05-06T02:25:58.162Z,7.85
2023-05-06T02:28:26.522Z,8.10
2023-05-06T02:30:58.881Z,7.50
2023-05-06T02:35:56.822Z,15.85
2023-05-06T02:38:26.925Z,11.13
2023-05-06T02:40:55.480Z,7.55
2023-05-06T02:43:23.757Z,6.88
2023-05-06T02:45:52.472Z,4.20
2023-05-06T02:48:20.787Z,8.90
2023-05-06T02:50:49.598Z,7.45
2023-05-06T02:53:17.812Z,6.40
2023-05-06T02:55:46.736Z,7.50
2023-05-06T02:58:15.366Z,7.97
2023-05-06T03:00:44.524Z,5.63
2023-05-06T03:03:12.743Z,6.45
2023-05-06T03:05:41.423Z,5.47
2023-05-06T03:08:09.917Z,5.40
2023-05-06T03:10:39.087Z,12.23
2023-05-06T03:13:07.904Z,5.50
2023-05-06T03:15:36.798Z,5.22
2023-05-06T03:18:05.228Z,5.85
2023-05-06T03:20:34.455Z,5.70
2023-05-06T03:23:02.790Z,5.03
2023-05-06T03:25:31.823Z,8.48
2023-05-06T03:28:00.460Z,10.48
2023-05-06T03:30:30.531Z,5.22
2023-05-06T03:33:02.180Z,6.57
2023-05-06T03:35:33.403Z,4.32
2023-05-06T03:38:02.639Z,9.23
2023-05-06T03:40:39.353Z,6.43
2023-05-06T03:43:08.055Z,7.80
2023-05-06T03:45:38.037Z,7.57
2023-05-06T03:48:08.138Z,6.97
2023-05-06T03:50:40.988Z,5.65
2023-05-06T03:53:10.026Z,7.88
2023-05-06T03:55:42.471Z,10.93
2023-05-06T03:58:12.619Z,5.15
2023-05-06T04:00:43.487Z,6.63
2023-05-06T04:03:12.268Z,10.48
2023-05-06T04:05:46.745Z,8.27
2023-05-06T04:08:17.820Z,7.80
2023-05-06T04:10:47.346Z,7.32
2023-05-06T04:13:22.749Z,9.27
2023-05-06T04:15:51.490Z,13.10
2023-05-06T04:18:24.001Z,7.03
2023-05-06T04:21:01.104Z,7.40
2023-05-06T04:23:31.498Z,6.95
2023-05-06T04:26:01.372Z,8.38
2023-05-06T04:28:32.593Z,6.93
2023-05-06T04:31:02.674Z,6.32
2023-05-06T04:33:40.301Z,7.90
2023-05-06T04:36:40.469Z,7.53
2023-05-06T04:39:18.317Z,7.82
2023-05-06T04:41:49.412Z,6.47
2023-05-06T04:44:23.867Z,6.60
2023-05-06T04:46:53.226Z,5.80
2023-05-06T04:49:21.691Z,6.22
2023-05-06T04:51:50.506Z,9.93
2023-05-06T04:54:19.143Z,9.05
2023-05-06T04:56:48.358Z,9.52
2023-05-06T04:59:19.865Z,25.23
2023-05-06T05:01:48.907Z,20.98
2023-05-06T05:04:17.471Z,8.07
2023-05-06T05:06:46.565Z,17.02
2023-05-06T05:09:16.397Z,12.07
2023-05-06T05:11:47.065Z,7.90
2023-05-06T05:14:15.293Z,7.47
2023-05-06T05:16:45.279Z,6.70
2023-05-06T05:19:13.681Z,6.47
2023-05-06T05:21:43.606Z,11.50
2023-05-06T05:24:13.559Z,8.88
2023-05-06T05:26:43.392Z,12.77
2023-05-06T05:29:11.812Z,6.97
2023-05-06T05:31:41.170Z,10.65
2023-05-06T05:34:09.780Z,8.25
2023-05-06T05:36:38.776Z,9.90
2023-05-06T05:39:10.266Z,10.98
2023-05-06T05:41:44.998Z,12.05
2023-05-06T05:44:13.982Z,7.28
2023-05-06T05:46:43.427Z,10.70
2023-05-06T05:51:44.713Z,6.50
2023-05-06T05:56:45.884Z,12.88
2023-05-06T05:59:15.548Z,11.55
2023-05-06T06:01:46.228Z,11.30
2023-05-06T06:04:16.057Z,12.88
2023-05-06T06:06:45.117Z,14.38
2023-05-06T06:09:13.796Z,8.15
2023-05-06T06:11:43.144Z,15.30
2023-05-06T06:14:12.432Z,11.05
2023-05-06T06:16:41.365Z,8.70
2023-05-06T06:19:09.865Z,28.65
2023-05-06T06:21:40.224Z,22.77
2023-05-06T06:24:09.011Z,6.88
2023-05-06T06:26:37.941Z,9.88
2023-05-06T06:29:06.445Z,10.43
2023-05-06T06:31:35.936Z,6.95
2023-05-06T06:34:09.258Z,8.80
2023-05-06T06:36:40.315Z,24.25
2023-05-06T06:39:08.739Z,7.50
2023-05-06T06:41:37.546Z,30.75
2023-05-06T06:44:06.512Z,7.85
2023-05-06T06:46:35.122Z,74.22
2023-05-06T06:49:03.719Z,4.75
2023-05-06T06:51:32.534Z,9.85
2023-05-06T06:54:00.985Z,25.60
2023-05-06T06:56:30.902Z,16.90
2023-05-06T06:58:59.261Z,13.60
2023-05-06T07:01:27.931Z,12.95
2023-05-06T07:03:56.399Z,6.25
2023-05-06T07:06:25.445Z,6.95
2023-05-06T07:08:53.800Z,6.85
2023-05-06T07:11:22.612Z,12.23
2023-05-06T07:13:53.709Z,9.13
2023-05-06T07:19:33.986Z,8.48
2023-05-06T07:24:57.211Z,11.30
2023-05-06T07:27:27.809Z,7.63
2023-05-06T07:29:58.725Z,11.35
2023-05-06T07:32:28.147Z,9.73
2023-05-06T07:34:56.481Z,9.95
2023-05-06T07:37:27.658Z,13.05
2023-05-06T07:39:58.185Z,9.75
2023-05-06T07:42:26.940Z,10.07
2023-05-06T07:44:55.474Z,9.95
2023-05-06T07:47:32.643Z,9.45
2023-05-06T07:50:01.220Z,8.93
2023-05-06T07:52:32.716Z,10.05
2023-05-06T07:55:01.246Z,11.57
2023-05-06T07:57:30.607Z,11.02
2023-05-06T07:59:59.325Z,9.40
2023-05-06T08:02:28.480Z,6.13
2023-05-06T08:04:58.500Z,14.02
2023-05-06T08:07:29.564Z,9.93
2023-05-06T08:10:00.842Z,8.48
2023-05-06T08:12:36.315Z,8.88
2023-05-06T08:19:46.126Z,11.60
2023-05-06T08:26:17.096Z,10.88
2023-05-06T08:28:45.697Z,12.15
2023-05-06T08:31:14.461Z,11.05
2023-05-06T08:33:42.721Z,12.32
2023-05-06T08:36:11.261Z,10.10
2023-05-06T08:38:39.558Z,10.18
2023-05-06T08:41:13.863Z,13.30
2023-05-06T08:43:44.145Z,10.75
2023-05-06T08:46:13.804Z,10.07
2023-05-06T08:48:55.970Z,11.60
2023-05-06T08:51:31.979Z,9.07
2023-05-06T08:54:08.822Z,13.52
2023-05-06T08:56:40.114Z,13.88
2023-05-06T08:59:09.592Z,30.52
2023-05-06T09:01:38.713Z,17.65
2023-05-06T09:04:09.914Z,16.80
2023-05-06T09:06:38.914Z,15.57
2023-05-06T09:09:07.392Z,18.83
2023-05-06T09:11:42.526Z,22.15
2023-05-06T09:14:18.035Z,18.58
2023-05-06T09:16:53.025Z,14.63
2023-05-06T09:19:23.045Z,19.42
2023-05-06T09:21:52.125Z,20.30
2023-05-06T09:24:21.192Z,18.02
2023-05-06T09:26:55.498Z,15.02
2023-05-06T09:29:23.833Z,12.77
2023-05-06T09:31:54.148Z,19.65
2023-05-06T09:34:22.811Z,19.88
2023-05-06T09:36:52.893Z,22.08
2023-05-06T09:39:26.000Z,17.42
2023-05-06T09:41:59.898Z,16.17
2023-05-06T09:46:58.612Z,23.20
2023-05-06T09:49:29.339Z,26.25
2023-05-06T09:51:58.820Z,23.98
2023-05-06T09:54:30.171Z,22.65
2023-05-06T09:57:01.073Z,17.27
2023-05-06T09:59:30.831Z,14.45
2023-05-06T10:02:00.219Z,11.68
2023-05-06T10:04:31.420Z,15.73
2023-05-06T10:07:08.791Z,13.32
2023-05-06T10:09:39.193Z,19.02
2023-05-06T10:12:09.007Z,18.33
2023-05-06T10:14:37.903Z,25.63
2023-05-06T10:17:09.446Z,23.35
2023-05-06T10:19:42.014Z,30.40
2023-05-06T10:22:49.373Z,21.52
2023-05-06T10:25:23.735Z,19.48
2023-05-06T10:28:06.638Z,13.70
2023-05-06T10:30:37.384Z,20.05
2023-05-06T10:33:10.091Z,17.20
2023-05-06T10:35:44.433Z,17.52
2023-05-06T10:38:22.063Z,15.38
2023-05-06T10:40:51.504Z,19.63
2023-05-06T10:43:22.696Z,19.10
2023-05-06T10:46:09.345Z,26.08
2023-05-06T10:48:59.456Z,30.75
2023-05-06T10:51:28.566Z,32.15
2023-05-06T10:53:57.442Z,24.10
2023-05-06T10:56:26.881Z,37.35
2023-05-06T10:58:58.674Z,36.13
2023-05-06T11:01:28.360Z,42.50
2023-05-06T11:03:59.728Z,33.80
2023-05-06T11:06:53.834Z,30.65
2023-05-06T11:09:54.761Z,27.73
2023-05-06T11:12:46.879Z,24.55
2023-05-06T11:15:41.498Z,30.63
2023-05-06T11:18:25.202Z,23.88
2023-05-06T11:21:02.976Z,24.90
2023-05-06T11:27:40.040Z,19.67
2023-05-06T11:30:14.981Z,22.38
2023-05-06T11:32:44.062Z,30.20
2023-05-06T11:35:12.789Z,24.17
2023-05-06T11:37:44.786Z,24.15
2023-05-06T11:40:16.502Z,28.52
2023-05-06T11:42:47.690Z,16.00
2023-05-06T11:45:17.038Z,18.75
2023-05-06T11:47:45.789Z,19.05
2023-05-06T11:50:14.102Z,18.60
2023-05-06T11:52:42.668Z,22.02
2023-05-06T11:55:14.925Z,18.08
2023-05-06T11:57:44.981Z,20.92
2023-05-06T12:00:14.618Z,20.63
2023-05-06T12:02:43.246Z,31.48
2023-05-06T12:05:12.304Z,32.90
2023-05-06T12:07:43.983Z,34.65
2023-05-06T12:10:12.863Z,25.65
2023-05-06T12:12:41.841Z,26.35
2023-05-06T12:15:12.377Z,36.33
2023-05-06T12:17:41.313Z,26.85
2023-05-06T12:20:11.297Z,41.30
2023-05-06T12:22:40.688Z,38.10
2023-05-06T12:25:18.226Z,36.10
2023-05-06T12:27:46.759Z,25.15
2023-05-06T12:30:15.152Z,24.90
2023-05-06T12:33:02.614Z,43.55
2023-05-06T12:35:34.193Z,29.83
2023-05-06T12:38:14.742Z,24.60
2023-05-06T12:40:44.987Z,18.83
2023-05-06T12:43:13.657Z,18.27
2023-05-06T12:45:42.162Z,19.60
2023-05-06T12:48:16.402Z,19.13
2023-05-06T12:50:47.988Z,20.63
2023-05-06T12:53:35.018Z,16.20
2023-05-06T12:56:03.390Z,22.15
2023-05-06T12:58:39.904Z,21.10
2023-05-06T13:01:08.328Z,21.52
2023-05-06T13:03:38.851Z,18.80
2023-05-06T13:06:07.177Z,15.88
2023-05-06T13:08:36.256Z,17.08
2023-05-06T13:11:04.564Z,15.38
2023-05-06T13:13:33.235Z,13.65
2023-05-06T13:16:01.645Z,14.65
2023-05-06T13:18:30.416Z,13.68
2023-05-06T13:21:00.490Z,20.90
2023-05-06T13:23:29.124Z,18.05
2023-05-06T13:26:04.216Z,13.73
2023-05-06T13:28:34.153Z,16.88
2023-05-06T13:31:02.431Z,14.25
2023-05-06T13:33:31.457Z,20.52
2023-05-06T13:35:59.956Z,21.67
2023-05-06T13:38:29.048Z,24.08
2023-05-06T13:40:59.344Z,17.83
2023-05-06T13:43:27.861Z,19.60
2023-05-06T13:45:56.326Z,19.05
2023-05-06T13:48:24.916Z,17.67
2023-05-06T13:50:53.192Z,15.23
2023-05-06T13:53:22.505Z,17.63
2023-05-06T13:55:50.946Z,15.65
2023-05-06T13:58:19.520Z,18.73
2023-05-06T14:00:48.685Z,23.08
2023-05-06T14:03:17.162Z,26.73
2023-05-06T14:05:45.464Z,22.27
2023-05-06T14:08:14.139Z,26.42
2023-05-06T14:10:42.406Z,30.83
2023-05-06T14:13:11.620Z,22.27
2023-05-06T14:15:40.120Z,21.90
2023-05-06T14:18:08.763Z,21.77
2023-05-06T14:20:37.018Z,25.45
2023-05-06T14:23:07.031Z,22.27
2023-05-06T14:25:35.427Z,19.92
2023-05-06T14:28:04.210Z,25.52
2023-05-06T14:30:34.329Z,19.38
2023-05-06T14:33:03.576Z,22.05
2023-05-06T14:35:31.997Z,26.38
2023-05-06T14:38:00.881Z,33.30
2023-05-06T14:40:29.220Z,24.48
2023-05-06T14:42:57.730Z,45.15
2023-05-06T14:45:25.971Z,24.23
2023-05-06T14:47:54.630Z,26.73
2023-05-06T14:50:23.085Z,27.35
2023-05-06T14:52:51.617Z,15.95
2023-05-06T14:55:20.708Z,34.00
2023-05-06T14:57:49.361Z,18.17
2023-05-06T15:00:17.977Z,18.83
2023-05-06T15:02:46.760Z,16.70
2023-05-06T15:05:15.639Z,11.75
2023-05-06T15:07:44.185Z,16.27
2023-05-06T15:10:12.907Z,16.40
2023-05-06T15:12:41.502Z,18.75
2023-05-06T15:15:10.165Z,14.90
2023-05-06T15:17:39.610Z,17.20
2023-05-06T15:20:09.317Z,17.08
2023-05-06T15:22:39.516Z,13.30
2023-05-06T15:25:12.313Z,17.15
2023-05-06T15:27:45.540Z,19.08
2023-05-06T15:30:14.402Z,21.80
2023-05-06T15:32:43.286Z,21.45
2023-05-06T15:35:12.116Z,20.45
2023-05-06T15:37:41.083Z,18.13
2023-05-06T15:40:13.580Z,15.38
2023-05-06T15:42:42.216Z,16.02
2023-05-06T15:45:12.372Z,19.02
2023-05-06T15:47:41.242Z,13.93
2023-05-06T15:50:20.054Z,14.45
2023-05-06T15:52:58.769Z,19.67
2023-05-06T15:55:27.189Z,15.98
2023-05-06T15:57:59.136Z,21.00
2023-05-06T16:00:28.786Z,17.02
2023-05-06T16:02:57.432Z,17.08
2023-05-06T16:05:25.755Z,15.38
2023-05-06T16:07:56.113Z,16.50
2023-05-06T16:10:24.419Z,15.57
2023-05-06T16:12:53.062Z,17.17
2023-05-06T16:15:21.476Z,18.98
2023-05-06T16:17:51.373Z,14.63
2023-05-06T16:20:20.096Z,20.33
2023-05-06T16:22:51.790Z,21.38
2023-05-06T16:25:20.332Z,18.73
2023-05-06T16:27:49.018Z,17.92
2023-05-06T16:30:17.948Z,17.98
2023-05-06T16:32:46.626Z,21.25
2023-05-06T16:35:16.689Z,22.27
2023-05-06T16:37:45.263Z,16.27
2023-05-06T16:40:19.403Z,20.63
2023-05-06T16:42:49.082Z,17.33
2023-05-06T16:45:17.378Z,24.35
2023-05-06T16:47:46.460Z,26.23
2023-05-06T16:50:14.874Z,23.50
2023-05-06T16:52:43.739Z,25.23
2023-05-06T16:55:13.119Z,24.55
2023-05-06T16:57:41.653Z,31.08
2023-05-06T17:00:12.107Z,32.15
2023-05-06T17:02:41.199Z,28.55
2023-05-06T17:05:10.004Z,34.15
2023-05-06T17:07:39.170Z,28.00
2023-05-06T17:10:08.202Z,41.63
2023-05-06T17:12:38.219Z,38.42
2023-05-06T17:15:07.322Z,44.55
2023-05-06T17:17:35.927Z,43.22
2023-05-06T17:20:05.347Z,51.50
2023-05-06T17:22:34.017Z,43.70
2023-05-06T17:25:03.546Z,34.30
2023-05-06T17:27:32.161Z,30.90
2023-05-06T17:30:03.150Z,29.90
2023-05-06T17:32:31.903Z,36.70
2023-05-06T17:35:00.208Z,51.67
2023-05-06T17:37:28.801Z,44.28
2023-05-06T17:39:57.216Z,43.33
2023-05-06T17:42:27.662Z,29.55
2023-05-06T17:44:56.159Z,32.58
2023-05-06T17:47:24.831Z,32.60
2023-05-06T17:49:53.867Z,31.42
2023-05-06T17:52:24.617Z,28.38
2023-05-06T17:55:16.407Z,30.83
2023-05-06T17:57:42.880Z,25.38
2023-05-06T18:00:11.675Z,27.23
2023-05-06T18:02:44.646Z,29.10
2023-05-06T18:05:13.873Z,25.77
2023-05-06T18:07:42.804Z,26.40
2023-05-06T18:10:11.261Z,30.67
2023-05-06T18:12:39.930Z,33.25
2023-05-06T18:15:09.070Z,36.90
2023-05-06T18:17:38.220Z,37.55
2023-05-06T18:20:08.091Z,38.00
2023-05-06T18:22:36.666Z,38.78
2023-05-06T18:25:05.799Z,37.95
2023-05-06T18:27:34.339Z,32.50
2023-05-06T18:30:06.602Z,33.35
2023-05-06T18:32:35.655Z,36.58
2023-05-06T18:35:04.236Z,30.85
2023-05-06T18:37:32.711Z,34.55
2023-05-06T18:40:01.127Z,34.70
2023-05-06T18:42:29.701Z,36.65
2023-05-06T18:44:58.168Z,39.70
2023-05-06T18:47:26.792Z,33.58
2023-05-06T18:49:55.125Z,29.85
2023-05-06T18:52:23.794Z,31.20
2023-05-06T18:54:51.975Z,34.28
2023-05-06T18:57:20.642Z,37.88
2023-05-06T18:59:48.825Z,31.63
2023-05-06T19:02:17.430Z,37.80
2023-05-06T19:04:45.941Z,41.60
2023-05-06T19:07:16.074Z,38.08
2023-05-06T19:09:44.817Z,39.53
2023-05-06T19:12:13.461Z,41.78
2023-05-06T19:14:41.954Z,42.50
2023-05-06T19:17:11.381Z,36.55
2023-05-06T19:19:40.846Z,27.20
2023-05-06T19:22:09.377Z,17.35
2023-05-06T19:24:37.545Z,24.13
2023-05-06T19:27:06.346Z,15.88
2023-05-06T19:29:35.251Z,21.77
2023-05-06T19:32:04.008Z,35.38
2023-05-06T19:34:32.275Z,41.38
2023-05-06T19:37:01.065Z,45.38
2023-05-06T19:39:29.284Z,37.13
2023-05-06T19:41:57.849Z,36.55
2023-05-06T19:44:26.034Z,24.48
2023-05-06T19:46:54.680Z,29.42
2023-05-06T19:49:22.914Z,28.23
2023-05-06T19:51:51.492Z,26.42
2023-05-06T19:54:19.962Z,25.45
2023-05-06T19:56:48.604Z,24.40
2023-05-06T19:59:17.731Z,28.05
2023-05-06T20:01:46.286Z,32.63
2023-05-06T20:04:14.633Z,29.13
2023-05-06T20:06:43.234Z,27.70
2023-05-06T20:09:11.592Z,29.45
2023-05-06T20:11:40.348Z,29.25
2023-05-06T20:14:08.856Z,32.22
2023-05-06T20:16:38.773Z,38.78
2023-05-06T20:19:07.943Z,33.85
2023-05-06T20:22:01.780Z,29.92
2023-05-06T20:24:30.138Z,30.48
2023-05-06T20:26:59.113Z,25.27
2023-05-06T20:29:27.491Z,26.55
2023-05-06T20:32:27.844Z,21.10
2023-05-06T20:35:03.618Z,20.38
2023-05-06T20:37:34.545Z,22.20
2023-05-06T20:40:04.828Z,22.10
2023-05-06T20:42:34.359Z,20.60
2023-05-06T20:45:03.180Z,20.08
2023-05-06T20:47:31.924Z,20.77
2023-05-06T20:50:00.471Z,20.10
2023-05-06T20:52:29.035Z,17.85
2023-05-06T20:54:58.206Z,19.42
2023-05-06T20:57:29.221Z,18.45
2023-05-06T21:00:03.905Z,96.63
2023-05-06T21:02:46.204Z,33.47
2023-05-06T21:06:17.465Z,29.30
2023-05-06T21:09:06.203Z,26.23
2023-05-06T21:11:40.290Z,28.73
2023-05-06T21:14:09.704Z,28.48
2023-05-06T21:17:10.092Z,28.15
2023-05-06T21:19:44.804Z,28.20
2023-05-06T21:22:56.534Z,23.02
2023-05-06T21:26:00.129Z,27.35
2023-05-06T21:28:30.865Z,22.95
2023-05-06T21:31:04.795Z,29.95
2023-05-06T21:33:42.173Z,33.92
2023-05-06T21:40:04.876Z,37.13
2023-05-06T21:42:46.697Z,33.80
2023-05-06T21:45:20.239Z,31.02
2023-05-06T21:48:13.894Z,35.35
2023-05-06T21:50:55.302Z,38.72
2023-05-06T21:53:37.369Z,35.83
2023-05-06T21:56:24.109Z,31.95
2023-05-06T21:58:57.717Z,41.25
2023-05-06T22:01:29.433Z,83.00
2023-05-06T22:03:58.123Z,89.63
2023-05-06T22:06:33.700Z,65.78
2023-05-06T22:09:08.778Z,51.55
2023-05-06T22:11:39.764Z,62.30
2023-05-06T22:14:08.001Z,42.00
2023-05-06T22:16:38.126Z,45.85
2023-05-06T22:19:06.898Z,52.70
2023-05-06T22:21:37.651Z,50.33
2023-05-06T22:24:14.900Z,48.45
2023-05-06T22:26:44.073Z,55.78
2023-05-06T22:29:12.802Z,88.30
2023-05-06T22:32:06.934Z,128.80
2023-05-06T22:34:35.220Z,142.43
2023-05-06T22:37:32.844Z,118.28
2023-05-06T22:40:04.469Z,145.23
2023-05-06T22:42:33.240Z,88.07
2023-05-06T22:45:01.964Z,87.88
2023-05-06T22:47:30.591Z,80.32
2023-05-06T22:49:58.997Z,66.10
2023-05-06T22:52:27.862Z,49.63
2023-05-06T22:54:56.056Z,48.80
2023-05-06T22:57:25.442Z,54.70
2023-05-06T22:59:54.023Z,50.35
2023-05-06T23:02:22.581Z,116.88
2023-05-06T23:04:51.078Z,127.03
2023-05-06T23:07:22.654Z,87.70
2023-05-06T23:09:51.113Z,67.20
2023-05-06T23:12:22.643Z,70.05
2023-05-06T23:14:51.192Z,53.10
2023-05-06T23:17:48.541Z,64.65
2023-05-06T23:20:17.343Z,51.15
2023-05-06T23:22:45.994Z,58.65
2023-05-06T23:25:15.103Z,61.13
2023-05-06T23:27:43.883Z,65.03
2023-05-06T23:30:12.673Z,51.35
2023-05-06T23:32:41.690Z,45.40
2023-05-06T23:35:10.443Z,78.53
2023-05-06T23:38:04.411Z,53.90
2023-05-06T23:40:32.740Z,52.20
2023-05-06T23:43:01.470Z,69.25
2023-05-06T23:45:29.812Z,55.92
2023-05-06T23:47:58.489Z,76.40
2023-05-06T23:50:26.999Z,181.57
2023-05-06T23:52:55.916Z,379.98
2023-05-06T23:55:26.388Z,146.18
2023-05-06T23:57:55.057Z,122.80
